Stena Atlantica — ZCPR7 — position and weather

sailwx.info

Track history (hours):
 
Tides and Currents Weather Stations Pressure Air Temp Water Temp Dewpoint Dewpoint Depression Visibility Wind Speed Wind Dir Waves Ship Positions

Stena Atlantica

Last reported at 2014-Nov-28 11:28 UTC. Time now 2014-Nov-28 18:10 UTC.
Position N 59°36' E 023°15'.

Length 245 m; draft 14 m.

Type: Tanker. MMSI: 319161000.

Date/timePositionNaut miles runAvg speedWind from/ knotsBaromVisibWave heightAir tempDewpointWater temp
2014-Nov-28 11:28N 59°36' E 023°15'1112.0
2014-Nov-28 10:33N 59°39' E 023°36'1312.0
2014-Nov-28 09:29N 59°43' E 024°01'1112.1
2014-Nov-28 08:33N 59°47' E 024°22'1212.1
2014-Nov-28 07:32N 59°50' E 024°46'4212.0
2014-Nov-28 04:04N 59°57' E 026°07'611.9
2014-Nov-28 03:33N 59°59' E 026°19'1211.8
2014-Nov-28 02:33N 60°01' E 026°42'  
2014-Nov-24 02:23N 60°05' E 027°29'1113.0
2014-Nov-24 01:32N 59°59' E 027°10'1211.9
2014-Nov-24 00:34N 59°59' E 026°47'1212.4
2014-Nov-23 23:33N 59°57' E 026°23'4312.9
2014-Nov-23 20:15N 59°47' E 025°00'912.6
2014-Nov-23 19:33N 59°45' E 024°43'1312.8
2014-Nov-23 18:33N 59°42' E 024°19'1412.5
2014-Nov-23 17:27N 59°38' E 023°52'1112.8
2014-Nov-23 16:33N 59°35' E 023°31'1512.6
2014-Nov-23 15:21N 59°30' E 023°02'28912.2
2014-Nov-22 15:32N 55°08' E 019°16'1212.5
2014-Nov-22 14:33N 54°56' E 019°11'1212.5
2014-Nov-22 13:33N 54°43' E 019°08'1212.1
2014-Nov-22 12:33N 54°31' E 019°03'1110.8
2014-Nov-22 11:33N 54°25' E 018°49'3 3.3
2014-Nov-22 10:32N 54°24' E 018°43'0 0.0
2014-Nov-22 09:32N 54°24' E 018°43'0 0.0
2014-Nov-22 08:32N 54°24' E 018°43'0 0.0
2014-Nov-22 07:32N 54°24' E 018°43'0 0.0
2014-Nov-22 06:26N 54°24' E 018°43'0 0.0
2014-Nov-22 05:32N 54°24' E 018°43'0 0.0
2014-Nov-22 04:32N 54°24' E 018°43'0 0.0
2014-Nov-22 03:32N 54°24' E 018°43'0 0.0
2014-Nov-22 02:32N 54°24' E 018°43'0 0.0
2014-Nov-22 01:32N 54°24' E 018°43'0 0.0
2014-Nov-22 00:32N 54°24' E 018°43'0 0.0
2014-Nov-21 23:32N 54°24' E 018°43'0 0.0
2014-Nov-21 22:29N 54°24' E 018°43'0 0.0
2014-Nov-21 21:32N 54°24' E 018°43'0 0.0
2014-Nov-21 20:32N 54°24' E 018°43'0 0.0
2014-Nov-21 19:32N 54°24' E 018°43'0 0.0
2014-Nov-21 18:32N 54°24' E 018°43'0 0.0
2014-Nov-21 17:32N 54°24' E 018°43'0 0.0
2014-Nov-21 16:32N 54°24' E 018°43'0 0.0
2014-Nov-21 15:32N 54°24' E 018°43'0 0.0
2014-Nov-21 14:32N 54°24' E 018°43'0 0.0
2014-Nov-21 13:33N 54°24' E 018°43'0 0.0
2014-Nov-21 12:30N 54°24' E 018°43'0 0.0
2014-Nov-21 11:33N 54°24' E 018°43'0 0.0
2014-Nov-21 10:33N 54°24' E 018°43'0 0.0
2014-Nov-21 09:34N 54°24' E 018°43'3 2.7
2014-Nov-21 08:34N 54°25' E 018°47'6 5.6
2014-Nov-21 07:33N 54°27' E 018°56'10 9.9
2014-Nov-21 06:33N 54°36' E 019°04'1111.2
2014-Nov-21 05:33N 54°47' E 019°05'1111.4
2014-Nov-21 04:34N 54°58' E 019°10'1111.3
2014-Nov-21 03:33N 55°09' E 019°13'28711.4
2014-Nov-20 02:32N 59°32' E 022°45'1211.9
2014-Nov-20 01:33N 59°35' E 023°06'1212.1
2014-Nov-20 00:33N 59°39' E 023°30'1212.2
2014-Nov-19 23:33N 59°42' E 023°53'1212.0
2014-Nov-19 22:33N 59°46' E 024°15'1211.9
2014-Nov-19 21:33N 59°49' E 024°38'3812.0
2014-Nov-19 18:24N 59°56' E 025°53'1011.9
2014-Nov-19 17:31N 59°58' E 026°13'1212.0
2014-Nov-19 16:34N 60°01' E 026°35'1212.0
2014-Nov-19 15:34N 59°60' E 026°59'45 7.2
2014-Nov-19 09:15N 59°45' E 028°25'  
Track history (hours):
 
Tides and Currents Weather Stations Pressure Air Temp Water Temp Dewpoint Dewpoint Depression Visibility Wind Speed Wind Dir Waves Ship Positions

Stena Atlantica

Last reported at 2014-Nov-28 11:28 UTC. Time now 2014-Nov-28 18:10 UTC.
Position N 59°36' E 023°15'.

Length 245 m; draft 14 m.

Type: Tanker. MMSI: 319161000.

Date/timePositionNaut miles runAvg speedWind from/ knotsBaromVisibWave heightAir tempDewpointWater temp
2014-Nov-28 11:28N 59°36' E 023°15'1112.0
2014-Nov-28 10:33N 59°39' E 023°36'1312.0
2014-Nov-28 09:29N 59°43' E 024°01'1112.1
2014-Nov-28 08:33N 59°47' E 024°22'1212.1
2014-Nov-28 07:32N 59°50' E 024°46'4212.0
2014-Nov-28 04:04N 59°57' E 026°07'611.9
2014-Nov-28 03:33N 59°59' E 026°19'1211.8
2014-Nov-28 02:33N 60°01' E 026°42'  
2014-Nov-24 02:23N 60°05' E 027°29'1113.0
2014-Nov-24 01:32N 59°59' E 027°10'1211.9
2014-Nov-24 00:34N 59°59' E 026°47'1212.4
2014-Nov-23 23:33N 59°57' E 026°23'4312.9
2014-Nov-23 20:15N 59°47' E 025°00'912.6
2014-Nov-23 19:33N 59°45' E 024°43'1312.8
2014-Nov-23 18:33N 59°42' E 024°19'1412.5
2014-Nov-23 17:27N 59°38' E 023°52'1112.8
2014-Nov-23 16:33N 59°35' E 023°31'1512.6
2014-Nov-23 15:21N 59°30' E 023°02'28912.2
2014-Nov-22 15:32N 55°08' E 019°16'1212.5
2014-Nov-22 14:33N 54°56' E 019°11'1212.5
2014-Nov-22 13:33N 54°43' E 019°08'1212.1
2014-Nov-22 12:33N 54°31' E 019°03'1110.8
2014-Nov-22 11:33N 54°25' E 018°49'3 3.3
2014-Nov-22 10:32N 54°24' E 018°43'0 0.0
2014-Nov-22 09:32N 54°24' E 018°43'0 0.0
2014-Nov-22 08:32N 54°24' E 018°43'0 0.0
2014-Nov-22 07:32N 54°24' E 018°43'0 0.0
2014-Nov-22 06:26N 54°24' E 018°43'0 0.0
2014-Nov-22 05:32N 54°24' E 018°43'0 0.0
2014-Nov-22 04:32N 54°24' E 018°43'0 0.0
2014-Nov-22 03:32N 54°24' E 018°43'0 0.0
2014-Nov-22 02:32N 54°24' E 018°43'0 0.0
2014-Nov-22 01:32N 54°24' E 018°43'0 0.0
2014-Nov-22 00:32N 54°24' E 018°43'0 0.0
2014-Nov-21 23:32N 54°24' E 018°43'0 0.0
2014-Nov-21 22:29N 54°24' E 018°43'0 0.0
2014-Nov-21 21:32N 54°24' E 018°43'0 0.0
2014-Nov-21 20:32N 54°24' E 018°43'0 0.0
2014-Nov-21 19:32N 54°24' E 018°43'0 0.0
2014-Nov-21 18:32N 54°24' E 018°43'0 0.0
2014-Nov-21 17:32N 54°24' E 018°43'0 0.0
2014-Nov-21 16:32N 54°24' E 018°43'0 0.0
2014-Nov-21 15:32N 54°24' E 018°43'0 0.0
2014-Nov-21 14:32N 54°24' E 018°43'0 0.0
2014-Nov-21 13:33N 54°24' E 018°43'0 0.0
2014-Nov-21 12:30N 54°24' E 018°43'0 0.0
2014-Nov-21 11:33N 54°24' E 018°43'0 0.0
2014-Nov-21 10:33N 54°24' E 018°43'0 0.0
2014-Nov-21 09:34N 54°24' E 018°43'3 2.7
2014-Nov-21 08:34N 54°25' E 018°47'6 5.6
2014-Nov-21 07:33N 54°27' E 018°56'10 9.9
2014-Nov-21 06:33N 54°36' E 019°04'1111.2
2014-Nov-21 05:33N 54°47' E 019°05'1111.4
2014-Nov-21 04:34N 54°58' E 019°10'1111.3
2014-Nov-21 03:33N 55°09' E 019°13'28711.4
2014-Nov-20 02:32N 59°32' E 022°45'1211.9
2014-Nov-20 01:33N 59°35' E 023°06'1212.1
2014-Nov-20 00:33N 59°39' E 023°30'1212.2
2014-Nov-19 23:33N 59°42' E 023°53'1212.0
2014-Nov-19 22:33N 59°46' E 024°15'1211.9
2014-Nov-19 21:33N 59°49' E 024°38'3812.0
2014-Nov-19 18:24N 59°56' E 025°53'1011.9
2014-Nov-19 17:31N 59°58' E 026°13'1212.0
2014-Nov-19 16:34N 60°01' E 026°35'1212.0
2014-Nov-19 15:34N 59°60' E 026°59'45 7.2
2014-Nov-19 09:15N 59°45' E 028°25'  

Dump ship's entire track history